sensor_id;sensor_type;location;lat;lon;timestamp;P1;durP1;ratioP1;P2;durP2;ratioP2
83552;SDS011;73510;50.866;5.420;2023-12-07T00:00:21;53.30;;;15.57;;
83552;SDS011;73510;50.866;5.420;2023-12-07T00:02:47;100.70;;;20.35;;
83552;SDS011;73510;50.866;5.420;2023-12-07T00:05:13;83.75;;;17.75;;
83552;SDS011;73510;50.866;5.420;2023-12-07T00:07:38;93.68;;;18.75;;
83552;SDS011;73510;50.866;5.420;2023-12-07T00:10:04;98.45;;;18.25;;
83552;SDS011;73510;50.866;5.420;2023-12-07T00:12:30;128.77;;;22.15;;
83552;SDS011;73510;50.866;5.420;2023-12-07T00:14:56;130.48;;;21.38;;
83552;SDS011;73510;50.866;5.420;2023-12-07T00:17:23;80.40;;;16.25;;
83552;SDS011;73510;50.866;5.420;2023-12-07T00:19:52;101.68;;;19.30;;
83552;SDS011;73510;50.866;5.420;2023-12-07T00:22:22;89.85;;;18.58;;
83552;SDS011;73510;50.866;5.420;2023-12-07T00:24:51;105.22;;;19.05;;
83552;SDS011;73510;50.866;5.420;2023-12-07T00:27:17;96.00;;;21.08;;
83552;SDS011;73510;50.866;5.420;2023-12-07T00:29:43;105.72;;;19.08;;
83552;SDS011;73510;50.866;5.420;2023-12-07T00:32:09;103.13;;;19.90;;
83552;SDS011;73510;50.866;5.420;2023-12-07T00:34:35;130.95;;;23.27;;
83552;SDS011;73510;50.866;5.420;2023-12-07T00:37:00;103.03;;;21.08;;
83552;SDS011;73510;50.866;5.420;2023-12-07T00:39:28;107.97;;;19.65;;
83552;SDS011;73510;50.866;5.420;2023-12-07T00:41:53;102.05;;;20.58;;
83552;SDS011;73510;50.866;5.420;2023-12-07T00:44:19;105.28;;;18.90;;
83552;SDS011;73510;50.866;5.420;2023-12-07T00:46:44;114.13;;;20.40;;
83552;SDS011;73510;50.866;5.420;2023-12-07T00:49:10;72.00;;;16.45;;
83552;SDS011;73510;50.866;5.420;2023-12-07T00:51:38;181.73;;;25.73;;
83552;SDS011;73510;50.866;5.420;2023-12-07T00:54:03;93.15;;;17.60;;
83552;SDS011;73510;50.866;5.420;2023-12-07T00:56:29;73.60;;;16.60;;
83552;SDS011;73510;50.866;5.420;2023-12-07T00:58:55;54.60;;;15.82;;
83552;SDS011;73510;50.866;5.420;2023-12-07T01:01:21;74.82;;;17.40;;
83552;SDS011;73510;50.866;5.420;2023-12-07T01:03:46;66.03;;;16.45;;
83552;SDS011;73510;50.866;5.420;2023-12-07T01:06:12;54.90;;;14.60;;
83552;SDS011;73510;50.866;5.420;2023-12-07T01:08:38;141.15;;;21.90;;
83552;SDS011;73510;50.866;5.420;2023-12-07T01:11:06;52.85;;;12.70;;
83552;SDS011;73510;50.866;5.420;2023-12-07T01:13:31;92.40;;;19.15;;
83552;SDS011;73510;50.866;5.420;2023-12-07T01:15:57;75.22;;;18.25;;
83552;SDS011;73510;50.866;5.420;2023-12-07T01:18:23;92.15;;;19.42;;
83552;SDS011;73510;50.866;5.420;2023-12-07T01:20:49;83.32;;;17.63;;
83552;SDS011;73510;50.866;5.420;2023-12-07T01:23:15;93.93;;;18.55;;
83552;SDS011;73510;50.866;5.420;2023-12-07T01:25:41;69.07;;;15.63;;
83552;SDS011;73510;50.866;5.420;2023-12-07T01:28:07;78.45;;;17.67;;
83552;SDS011;73510;50.866;5.420;2023-12-07T01:30:34;47.67;;;13.38;;
83552;SDS011;73510;50.866;5.420;2023-12-07T01:33:01;61.38;;;14.43;;
83552;SDS011;73510;50.866;5.420;2023-12-07T01:35:27;45.55;;;13.00;;
83552;SDS011;73510;50.866;5.420;2023-12-07T01:37:55;49.60;;;14.57;;
83552;SDS011;73510;50.866;5.420;2023-12-07T01:40:23;65.40;;;15.18;;
83552;SDS011;73510;50.866;5.420;2023-12-07T01:42:54;51.05;;;14.90;;
83552;SDS011;73510;50.866;5.420;2023-12-07T01:45:20;48.92;;;13.07;;
83552;SDS011;73510;50.866;5.420;2023-12-07T01:47:46;45.35;;;11.52;;
83552;SDS011;73510;50.866;5.420;2023-12-07T01:50:14;37.17;;;10.80;;
83552;SDS011;73510;50.866;5.420;2023-12-07T01:52:43;40.47;;;11.95;;
83552;SDS011;73510;50.866;5.420;2023-12-07T01:55:10;24.95;;;9.27;;
83552;SDS011;73510;50.866;5.420;2023-12-07T01:57:37;34.22;;;9.93;;
83552;SDS011;73510;50.866;5.420;2023-12-07T02:00:03;38.45;;;10.93;;
83552;SDS011;73510;50.866;5.420;2023-12-07T02:02:29;34.50;;;10.80;;
83552;SDS011;73510;50.866;5.420;2023-12-07T02:04:56;27.15;;;9.98;;
83552;SDS011;73510;50.866;5.420;2023-12-07T02:07:22;22.33;;;8.27;;
83552;SDS011;73510;50.866;5.420;2023-12-07T02:09:49;34.08;;;10.80;;
83552;SDS011;73510;50.866;5.420;2023-12-07T02:12:16;36.95;;;10.65;;
83552;SDS011;73510;50.866;5.420;2023-12-07T02:14:44;33.97;;;11.13;;
83552;SDS011;73510;50.866;5.420;2023-12-07T02:19:57;42.90;;;13.10;;
83552;SDS011;73510;50.866;5.420;2023-12-07T02:22:42;36.22;;;12.43;;
83552;SDS011;73510;50.866;5.420;2023-12-07T02:25:13;35.33;;;11.68;;
83552;SDS011;73510;50.866;5.420;2023-12-07T02:27:40;39.03;;;12.38;;
83552;SDS011;73510;50.866;5.420;2023-12-07T02:30:13;41.60;;;12.68;;
83552;SDS011;73510;50.866;5.420;2023-12-07T02:32:40;44.05;;;12.50;;
83552;SDS011;73510;50.866;5.420;2023-12-07T02:35:08;43.28;;;13.45;;
83552;SDS011;73510;50.866;5.420;2023-12-07T02:37:40;37.55;;;12.50;;
83552;SDS011;73510;50.866;5.420;2023-12-07T02:40:15;34.40;;;12.38;;
83552;SDS011;73510;50.866;5.420;2023-12-07T02:42:47;39.33;;;12.65;;
83552;SDS011;73510;50.866;5.420;2023-12-07T02:45:13;27.65;;;11.48;;
83552;SDS011;73510;50.866;5.420;2023-12-07T02:47:40;29.17;;;10.40;;
83552;SDS011;73510;50.866;5.420;2023-12-07T02:50:08;26.85;;;11.15;;
83552;SDS011;73510;50.866;5.420;2023-12-07T02:52:34;30.17;;;10.65;;
83552;SDS011;73510;50.866;5.420;2023-12-07T02:55:00;22.92;;;10.07;;
83552;SDS011;73510;50.866;5.420;2023-12-07T02:57:29;32.00;;;10.40;;
83552;SDS011;73510;50.866;5.420;2023-12-07T02:59:58;32.28;;;10.00;;
83552;SDS011;73510;50.866;5.420;2023-12-07T03:02:24;26.73;;;9.23;;
83552;SDS011;73510;50.866;5.420;2023-12-07T03:04:50;19.77;;;7.32;;
83552;SDS011;73510;50.866;5.420;2023-12-07T03:07:16;30.58;;;8.40;;
83552;SDS011;73510;50.866;5.420;2023-12-07T03:09:41;25.90;;;9.30;;
83552;SDS011;73510;50.866;5.420;2023-12-07T03:12:07;20.77;;;8.95;;
83552;SDS011;73510;50.866;5.420;2023-12-07T03:14:33;17.63;;;8.13;;
83552;SDS011;73510;50.866;5.420;2023-12-07T03:16:59;18.50;;;8.50;;
83552;SDS011;73510;50.866;5.420;2023-12-07T03:19:25;20.88;;;8.43;;
83552;SDS011;73510;50.866;5.420;2023-12-07T03:21:50;19.95;;;7.85;;
83552;SDS011;73510;50.866;5.420;2023-12-07T03:24:16;15.85;;;7.43;;
83552;SDS011;73510;50.866;5.420;2023-12-07T03:26:43;17.13;;;7.40;;
83552;SDS011;73510;50.866;5.420;2023-12-07T03:29:09;20.58;;;9.05;;
83552;SDS011;73510;50.866;5.420;2023-12-07T03:31:36;16.00;;;8.73;;
83552;SDS011;73510;50.866;5.420;2023-12-07T03:34:01;18.67;;;8.40;;
83552;SDS011;73510;50.866;5.420;2023-12-07T03:36:30;21.05;;;9.27;;
83552;SDS011;73510;50.866;5.420;2023-12-07T03:38:56;24.60;;;9.93;;
83552;SDS011;73510;50.866;5.420;2023-12-07T03:41:22;22.58;;;11.18;;
83552;SDS011;73510;50.866;5.420;2023-12-07T03:43:48;26.75;;;10.60;;
83552;SDS011;73510;50.866;5.420;2023-12-07T03:46:13;20.42;;;9.60;;
83552;SDS011;73510;50.866;5.420;2023-12-07T03:48:39;18.27;;;8.38;;
83552;SDS011;73510;50.866;5.420;2023-12-07T03:51:05;17.90;;;8.18;;
83552;SDS011;73510;50.866;5.420;2023-12-07T03:53:31;19.67;;;9.82;;
83552;SDS011;73510;50.866;5.420;2023-12-07T03:55:56;25.48;;;11.43;;
83552;SDS011;73510;50.866;5.420;2023-12-07T03:58:22;16.17;;;7.97;;
83552;SDS011;73510;50.866;5.420;2023-12-07T04:00:48;17.38;;;7.75;;
83552;SDS011;73510;50.866;5.420;2023-12-07T04:03:13;15.70;;;8.23;;
83552;SDS011;73510;50.866;5.420;2023-12-07T04:05:39;18.50;;;8.82;;
83552;SDS011;73510;50.866;5.420;2023-12-07T04:08:05;9.25;;;5.03;;
83552;SDS011;73510;50.866;5.420;2023-12-07T04:10:31;11.57;;;6.18;;
83552;SDS011;73510;50.866;5.420;2023-12-07T04:12:57;12.30;;;6.38;;
83552;SDS011;73510;50.866;5.420;2023-12-07T04:15:23;12.82;;;6.22;;
83552;SDS011;73510;50.866;5.420;2023-12-07T04:17:49;13.95;;;6.03;;
83552;SDS011;73510;50.866;5.420;2023-12-07T04:20:15;12.88;;;6.07;;
83552;SDS011;73510;50.866;5.420;2023-12-07T04:22:41;13.35;;;6.47;;
83552;SDS011;73510;50.866;5.420;2023-12-07T04:25:09;14.45;;;6.35;;
83552;SDS011;73510;50.866;5.420;2023-12-07T04:27:36;11.93;;;6.35;;
83552;SDS011;73510;50.866;5.420;2023-12-07T04:30:02;15.40;;;6.28;;
83552;SDS011;73510;50.866;5.420;2023-12-07T04:32:28;9.70;;;5.53;;
83552;SDS011;73510;50.866;5.420;2023-12-07T04:34:54;17.23;;;6.78;;
83552;SDS011;73510;50.866;5.420;2023-12-07T04:37:20;12.50;;;5.95;;
83552;SDS011;73510;50.866;5.420;2023-12-07T04:39:46;12.25;;;6.15;;
83552;SDS011;73510;50.866;5.420;2023-12-07T04:42:11;14.52;;;7.00;;
83552;SDS011;73510;50.866;5.420;2023-12-07T04:44:37;12.70;;;6.57;;
83552;SDS011;73510;50.866;5.420;2023-12-07T04:47:03;15.43;;;6.55;;
83552;SDS011;73510;50.866;5.420;2023-12-07T04:49:29;16.90;;;7.05;;
83552;SDS011;73510;50.866;5.420;2023-12-07T04:51:55;16.85;;;8.43;;
83552;SDS011;73510;50.866;5.420;2023-12-07T04:54:21;14.70;;;7.60;;
83552;SDS011;73510;50.866;5.420;2023-12-07T04:56:47;11.90;;;6.25;;
83552;SDS011;73510;50.866;5.420;2023-12-07T04:59:13;16.15;;;7.35;;
83552;SDS011;73510;50.866;5.420;2023-12-07T05:01:38;19.15;;;8.70;;
83552;SDS011;73510;50.866;5.420;2023-12-07T05:04:04;16.10;;;8.13;;
83552;SDS011;73510;50.866;5.420;2023-12-07T05:06:33;17.30;;;7.45;;
83552;SDS011;73510;50.866;5.420;2023-12-07T05:09:00;19.10;;;8.27;;
83552;SDS011;73510;50.866;5.420;2023-12-07T05:11:25;15.15;;;7.60;;
83552;SDS011;73510;50.866;5.420;2023-12-07T05:13:51;18.10;;;8.18;;
83552;SDS011;73510;50.866;5.420;2023-12-07T05:16:17;22.75;;;9.25;;
83552;SDS011;73510;50.866;5.420;2023-12-07T05:18:43;21.77;;;10.13;;
83552;SDS011;73510;50.866;5.420;2023-12-07T05:21:09;23.83;;;10.52;;
83552;SDS011;73510;50.866;5.420;2023-12-07T05:23:34;24.30;;;10.88;;
83552;SDS011;73510;50.866;5.420;2023-12-07T05:26:00;20.65;;;9.50;;
83552;SDS011;73510;50.866;5.420;2023-12-07T05:28:26;24.33;;;11.05;;
83552;SDS011;73510;50.866;5.420;2023-12-07T05:30:53;23.88;;;10.68;;
83552;SDS011;73510;50.866;5.420;2023-12-07T05:33:19;21.05;;;10.70;;
83552;SDS011;73510;50.866;5.420;2023-12-07T05:35:44;22.55;;;9.77;;
83552;SDS011;73510;50.866;5.420;2023-12-07T05:38:11;22.92;;;10.80;;
83552;SDS011;73510;50.866;5.420;2023-12-07T05:40:37;20.77;;;9.75;;
83552;SDS011;73510;50.866;5.420;2023-12-07T05:43:02;19.83;;;9.77;;
83552;SDS011;73510;50.866;5.420;2023-12-07T05:45:29;16.83;;;7.72;;
83552;SDS011;73510;50.866;5.420;2023-12-07T05:47:55;16.33;;;7.70;;
83552;SDS011;73510;50.866;5.420;2023-12-07T05:50:21;14.57;;;7.70;;
83552;SDS011;73510;50.866;5.420;2023-12-07T05:52:47;14.15;;;7.55;;
83552;SDS011;73510;50.866;5.420;2023-12-07T05:55:12;14.32;;;8.38;;
83552;SDS011;73510;50.866;5.420;2023-12-07T05:57:38;14.73;;;8.95;;
83552;SDS011;73510;50.866;5.420;2023-12-07T06:00:05;15.10;;;8.70;;
83552;SDS011;73510;50.866;5.420;2023-12-07T06:02:34;14.75;;;7.75;;
83552;SDS011;73510;50.866;5.420;2023-12-07T06:05:00;11.10;;;5.40;;
83552;SDS011;73510;50.866;5.420;2023-12-07T06:07:29;16.85;;;7.78;;
83552;SDS011;73510;50.866;5.420;2023-12-07T06:09:55;16.45;;;9.38;;
83552;SDS011;73510;50.866;5.420;2023-12-07T06:12:21;10.15;;;5.95;;
83552;SDS011;73510;50.866;5.420;2023-12-07T06:14:50;14.75;;;8.68;;
83552;SDS011;73510;50.866;5.420;2023-12-07T06:17:16;13.90;;;7.88;;
83552;SDS011;73510;50.866;5.420;2023-12-07T06:19:42;12.43;;;6.80;;
83552;SDS011;73510;50.866;5.420;2023-12-07T06:22:08;6.63;;;3.70;;
83552;SDS011;73510;50.866;5.420;2023-12-07T06:24:34;9.60;;;5.30;;
83552;SDS011;73510;50.866;5.420;2023-12-07T06:27:01;12.63;;;6.68;;
83552;SDS011;73510;50.866;5.420;2023-12-07T06:29:27;14.27;;;7.38;;
83552;SDS011;73510;50.866;5.420;2023-12-07T06:31:54;14.07;;;7.38;;
83552;SDS011;73510;50.866;5.420;2023-12-07T06:34:20;13.95;;;7.68;;
83552;SDS011;73510;50.866;5.420;2023-12-07T06:36:45;14.25;;;5.78;;
83552;SDS011;73510;50.866;5.420;2023-12-07T06:39:12;11.18;;;5.35;;
83552;SDS011;73510;50.866;5.420;2023-12-07T06:41:39;11.10;;;6.78;;
83552;SDS011;73510;50.866;5.420;2023-12-07T06:44:05;11.48;;;6.28;;
83552;SDS011;73510;50.866;5.420;2023-12-07T06:46:31;10.38;;;6.47;;
83552;SDS011;73510;50.866;5.420;2023-12-07T06:48:57;12.20;;;7.20;;
83552;SDS011;73510;50.866;5.420;2023-12-07T06:51:23;16.10;;;7.43;;
83552;SDS011;73510;50.866;5.420;2023-12-07T06:53:49;12.88;;;6.82;;
83552;SDS011;73510;50.866;5.420;2023-12-07T06:56:14;12.98;;;7.22;;
83552;SDS011;73510;50.866;5.420;2023-12-07T06:58:41;15.63;;;7.18;;
83552;SDS011;73510;50.866;5.420;2023-12-07T07:01:07;11.68;;;6.47;;
83552;SDS011;73510;50.866;5.420;2023-12-07T07:03:32;12.95;;;7.50;;
83552;SDS011;73510;50.866;5.420;2023-12-07T07:06:00;14.38;;;7.20;;
83552;SDS011;73510;50.866;5.420;2023-12-07T07:08:25;13.30;;;6.57;;
83552;SDS011;73510;50.866;5.420;2023-12-07T07:10:51;11.88;;;6.95;;
83552;SDS011;73510;50.866;5.420;2023-12-07T07:13:17;15.02;;;6.88;;
83552;SDS011;73510;50.866;5.420;2023-12-07T07:15:45;15.32;;;6.88;;
83552;SDS011;73510;50.866;5.420;2023-12-07T07:18:11;13.07;;;6.97;;
83552;SDS011;73510;50.866;5.420;2023-12-07T07:20:36;14.20;;;7.40;;
83552;SDS011;73510;50.866;5.420;2023-12-07T07:23:02;13.38;;;7.10;;
83552;SDS011;73510;50.866;5.420;2023-12-07T07:25:28;13.27;;;6.65;;
83552;SDS011;73510;50.866;5.420;2023-12-07T07:27:54;12.93;;;6.78;;
83552;SDS011;73510;50.866;5.420;2023-12-07T07:30:20;14.35;;;6.75;;
83552;SDS011;73510;50.866;5.420;2023-12-07T07:32:46;12.48;;;6.55;;
83552;SDS011;73510;50.866;5.420;2023-12-07T07:35:12;14.93;;;7.32;;
83552;SDS011;73510;50.866;5.420;2023-12-07T07:37:39;13.35;;;6.75;;
83552;SDS011;73510;50.866;5.420;2023-12-07T07:40:06;11.98;;;7.03;;
83552;SDS011;73510;50.866;5.420;2023-12-07T07:42:33;16.92;;;7.10;;
83552;SDS011;73510;50.866;5.420;2023-12-07T07:44:59;14.25;;;7.40;;
83552;SDS011;73510;50.866;5.420;2023-12-07T07:47:24;13.30;;;6.95;;
83552;SDS011;73510;50.866;5.420;2023-12-07T07:49:50;18.42;;;8.25;;
83552;SDS011;73510;50.866;5.420;2023-12-07T07:52:15;14.25;;;6.85;;
83552;SDS011;73510;50.866;5.420;2023-12-07T07:54:41;13.57;;;7.72;;
83552;SDS011;73510;50.866;5.420;2023-12-07T07:57:08;18.05;;;7.95;;
83552;SDS011;73510;50.866;5.420;2023-12-07T07:59:33;16.95;;;8.13;;
83552;SDS011;73510;50.866;5.420;2023-12-07T08:01:59;16.20;;;7.60;;
83552;SDS011;73510;50.866;5.420;2023-12-07T08:04:25;14.32;;;7.53;;
83552;SDS011;73510;50.866;5.420;2023-12-07T08:06:50;12.15;;;7.28;;
83552;SDS011;73510;50.866;5.420;2023-12-07T08:09:16;12.98;;;6.32;;
83552;SDS011;73510;50.866;5.420;2023-12-07T08:11:42;14.90;;;8.18;;
83552;SDS011;73510;50.866;5.420;2023-12-07T08:14:08;16.80;;;7.70;;
83552;SDS011;73510;50.866;5.420;2023-12-07T08:16:34;17.80;;;8.65;;
83552;SDS011;73510;50.866;5.420;2023-12-07T08:19:00;14.93;;;7.97;;
83552;SDS011;73510;50.866;5.420;2023-12-07T08:21:26;13.50;;;7.80;;
83552;SDS011;73510;50.866;5.420;2023-12-07T08:23:54;14.48;;;7.55;;
83552;SDS011;73510;50.866;5.420;2023-12-07T08:26:20;15.75;;;7.80;;
83552;SDS011;73510;50.866;5.420;2023-12-07T08:28:46;12.88;;;6.35;;
83552;SDS011;73510;50.866;5.420;2023-12-07T08:31:12;11.27;;;5.90;;
83552;SDS011;73510;50.866;5.420;2023-12-07T08:33:37;10.77;;;6.05;;
83552;SDS011;73510;50.866;5.420;2023-12-07T08:36:04;10.93;;;5.85;;
83552;SDS011;73510;50.866;5.420;2023-12-07T08:38:31;12.75;;;6.82;;
83552;SDS011;73510;50.866;5.420;2023-12-07T08:40:57;11.32;;;6.07;;
83552;SDS011;73510;50.866;5.420;2023-12-07T08:43:23;11.35;;;6.13;;
83552;SDS011;73510;50.866;5.420;2023-12-07T08:45:52;9.90;;;6.00;;
83552;SDS011;73510;50.866;5.420;2023-12-07T08:48:21;10.75;;;5.80;;
83552;SDS011;73510;50.866;5.420;2023-12-07T08:50:48;10.40;;;6.00;;
83552;SDS011;73510;50.866;5.420;2023-12-07T08:53:13;11.80;;;6.25;;
83552;SDS011;73510;50.866;5.420;2023-12-07T08:55:39;10.57;;;6.43;;
83552;SDS011;73510;50.866;5.420;2023-12-07T08:58:05;9.98;;;6.20;;
83552;SDS011;73510;50.866;5.420;2023-12-07T09:00:31;11.88;;;6.35;;
83552;SDS011;73510;50.866;5.420;2023-12-07T09:02:57;10.63;;;6.18;;
83552;SDS011;73510;50.866;5.420;2023-12-07T09:05:25;12.02;;;6.25;;
83552;SDS011;73510;50.866;5.420;2023-12-07T09:07:51;12.20;;;6.68;;
83552;SDS011;73510;50.866;5.420;2023-12-07T09:10:18;10.30;;;6.10;;
83552;SDS011;73510;50.866;5.420;2023-12-07T09:12:44;11.45;;;5.82;;
83552;SDS011;73510;50.866;5.420;2023-12-07T09:15:10;12.18;;;5.88;;
83552;SDS011;73510;50.866;5.420;2023-12-07T09:17:38;9.95;;;5.35;;
83552;SDS011;73510;50.866;5.420;2023-12-07T09:20:04;10.50;;;5.60;;
83552;SDS011;73510;50.866;5.420;2023-12-07T09:22:32;11.35;;;6.43;;
83552;SDS011;73510;50.866;5.420;2023-12-07T09:24:58;9.50;;;5.32;;
83552;SDS011;73510;50.866;5.420;2023-12-07T09:27:24;9.10;;;4.88;;
83552;SDS011;73510;50.866;5.420;2023-12-07T09:29:50;10.57;;;5.88;;
83552;SDS011;73510;50.866;5.420;2023-12-07T09:32:16;9.55;;;5.55;;
83552;SDS011;73510;50.866;5.420;2023-12-07T09:34:42;10.02;;;4.20;;
83552;SDS011;73510;50.866;5.420;2023-12-07T09:37:08;9.38;;;5.60;;
83552;SDS011;73510;50.866;5.420;2023-12-07T09:39:35;7.72;;;4.93;;
83552;SDS011;73510;50.866;5.420;2023-12-07T09:42:01;11.45;;;5.15;;
83552;SDS011;73510;50.866;5.420;2023-12-07T09:44:27;9.55;;;5.13;;
83552;SDS011;73510;50.866;5.420;2023-12-07T09:46:53;9.82;;;5.38;;
83552;SDS011;73510;50.866;5.420;2023-12-07T09:49:20;8.13;;;3.88;;
83552;SDS011;73510;50.866;5.420;2023-12-07T09:51:46;10.77;;;5.68;;
83552;SDS011;73510;50.866;5.420;2023-12-07T09:54:12;10.55;;;5.95;;
83552;SDS011;73510;50.866;5.420;2023-12-07T09:56:38;9.80;;;4.85;;
83552;SDS011;73510;50.866;5.420;2023-12-07T09:59:05;10.93;;;5.72;;
83552;SDS011;73510;50.866;5.420;2023-12-07T10:01:32;9.90;;;5.28;;
83552;SDS011;73510;50.866;5.420;2023-12-07T10:06:45;8.02;;;4.13;;
83552;SDS011;73510;50.866;5.420;2023-12-07T10:09:13;9.45;;;5.72;;
83552;SDS011;73510;50.866;5.420;2023-12-07T10:11:40;9.35;;;5.45;;
83552;SDS011;73510;50.866;5.420;2023-12-07T10:14:07;10.27;;;5.40;;
83552;SDS011;73510;50.866;5.420;2023-12-07T10:16:33;12.30;;;4.80;;
83552;SDS011;73510;50.866;5.420;2023-12-07T10:21:55;9.68;;;5.45;;
83552;SDS011;73510;50.866;5.420;2023-12-07T10:24:21;10.32;;;6.10;;
83552;SDS011;73510;50.866;5.420;2023-12-07T10:26:51;10.57;;;6.20;;
83552;SDS011;73510;50.866;5.420;2023-12-07T10:29:17;11.10;;;5.93;;
83552;SDS011;73510;50.866;5.420;2023-12-07T10:31:48;9.60;;;6.03;;
83552;SDS011;73510;50.866;5.420;2023-12-07T10:34:17;7.80;;;5.68;;
83552;SDS011;73510;50.866;5.420;2023-12-07T10:36:46;10.45;;;5.65;;
83552;SDS011;73510;50.866;5.420;2023-12-07T10:39:12;10.95;;;5.82;;
83552;SDS011;73510;50.866;5.420;2023-12-07T10:41:38;10.32;;;5.50;;
83552;SDS011;73510;50.866;5.420;2023-12-07T10:44:10;11.50;;;5.72;;
83552;SDS011;73510;50.866;5.420;2023-12-07T10:46:38;15.45;;;7.47;;
83552;SDS011;73510;50.866;5.420;2023-12-07T10:49:07;13.02;;;7.55;;
83552;SDS011;73510;50.866;5.420;2023-12-07T10:51:45;9.10;;;5.47;;
83552;SDS011;73510;50.866;5.420;2023-12-07T10:54:19;11.55;;;5.80;;
83552;SDS011;73510;50.866;5.420;2023-12-07T10:56:48;13.18;;;5.95;;
83552;SDS011;73510;50.866;5.420;2023-12-07T10:59:15;12.32;;;5.32;;
83552;SDS011;73510;50.866;5.420;2023-12-07T11:01:42;11.15;;;6.47;;
83552;SDS011;73510;50.866;5.420;2023-12-07T11:04:12;10.07;;;5.40;;
83552;SDS011;73510;50.866;5.420;2023-12-07T11:06:41;12.00;;;6.70;;
83552;SDS011;73510;50.866;5.420;2023-12-07T11:09:16;16.05;;;6.90;;
83552;SDS011;73510;50.866;5.420;2023-12-07T11:11:51;8.93;;;5.03;;
83552;SDS011;73510;50.866;5.420;2023-12-07T11:14:19;11.18;;;5.70;;
83552;SDS011;73510;50.866;5.420;2023-12-07T11:16:46;13.52;;;7.05;;
83552;SDS011;73510;50.866;5.420;2023-12-07T11:22:02;7.75;;;5.03;;
83552;SDS011;73510;50.866;5.420;2023-12-07T11:24:31;10.77;;;6.13;;
83552;SDS011;73510;50.866;5.420;2023-12-07T11:26:56;10.30;;;6.35;;
83552;SDS011;73510;50.866;5.420;2023-12-07T11:29:26;10.95;;;5.70;;
83552;SDS011;73510;50.866;5.420;2023-12-07T11:32:01;10.23;;;6.43;;
83552;SDS011;73510;50.866;5.420;2023-12-07T11:34:35;13.93;;;5.63;;
83552;SDS011;73510;50.866;5.420;2023-12-07T11:37:02;10.65;;;6.07;;
83552;SDS011;73510;50.866;5.420;2023-12-07T11:39:35;7.95;;;4.82;;
83552;SDS011;73510;50.866;5.420;2023-12-07T11:42:22;9.60;;;5.75;;
83552;SDS011;73510;50.866;5.420;2023-12-07T11:44:48;10.32;;;5.50;;
83552;SDS011;73510;50.866;5.420;2023-12-07T11:47:16;9.77;;;5.60;;
83552;SDS011;73510;50.866;5.420;2023-12-07T11:49:43;11.07;;;5.43;;
83552;SDS011;73510;50.866;5.420;2023-12-07T11:52:13;10.15;;;5.47;;
83552;SDS011;73510;50.866;5.420;2023-12-07T11:54:45;10.13;;;5.40;;
83552;SDS011;73510;50.866;5.420;2023-12-07T11:57:15;6.40;;;4.28;;
83552;SDS011;73510;50.866;5.420;2023-12-07T11:59:43;9.25;;;5.88;;
83552;SDS011;73510;50.866;5.420;2023-12-07T12:02:12;8.95;;;5.22;;
83552;SDS011;73510;50.866;5.420;2023-12-07T12:04:38;6.25;;;4.43;;
83552;SDS011;73510;50.866;5.420;2023-12-07T12:07:05;10.57;;;5.32;;
83552;SDS011;73510;50.866;5.420;2023-12-07T12:09:31;9.75;;;5.13;;
83552;SDS011;73510;50.866;5.420;2023-12-07T12:11:59;10.20;;;4.75;;
83552;SDS011;73510;50.866;5.420;2023-12-07T12:14:25;8.77;;;5.30;;
83552;SDS011;73510;50.866;5.420;2023-12-07T12:16:53;7.93;;;4.68;;
83552;SDS011;73510;50.866;5.420;2023-12-07T12:19:19;8.95;;;5.80;;
83552;SDS011;73510;50.866;5.420;2023-12-07T12:21:45;9.93;;;5.18;;
83552;SDS011;73510;50.866;5.420;2023-12-07T12:24:11;10.82;;;5.30;;
83552;SDS011;73510;50.866;5.420;2023-12-07T12:26:39;9.35;;;4.38;;
83552;SDS011;73510;50.866;5.420;2023-12-07T12:29:06;7.93;;;4.45;;
83552;SDS011;73510;50.866;5.420;2023-12-07T12:31:37;6.60;;;4.47;;
83552;SDS011;73510;50.866;5.420;2023-12-07T12:34:06;10.20;;;5.03;;
83552;SDS011;73510;50.866;5.420;2023-12-07T12:36:33;10.27;;;5.40;;
83552;SDS011;73510;50.866;5.420;2023-12-07T12:38:59;7.80;;;5.20;;
83552;SDS011;73510;50.866;5.420;2023-12-07T12:41:27;5.90;;;3.05;;
83552;SDS011;73510;50.866;5.420;2023-12-07T12:43:55;9.40;;;5.20;;
83552;SDS011;73510;50.866;5.420;2023-12-07T12:46:21;7.45;;;4.65;;
83552;SDS011;73510;50.866;5.420;2023-12-07T12:51:20;9.27;;;5.38;;
83552;SDS011;73510;50.866;5.420;2023-12-07T12:53:48;14.30;;;4.47;;
83552;SDS011;73510;50.866;5.420;2023-12-07T12:56:15;6.38;;;3.97;;
83552;SDS011;73510;50.866;5.420;2023-12-07T12:58:42;7.63;;;5.18;;
83552;SDS011;73510;50.866;5.420;2023-12-07T13:01:08;12.32;;;5.05;;
83552;SDS011;73510;50.866;5.420;2023-12-07T13:03:34;7.75;;;4.90;;
83552;SDS011;73510;50.866;5.420;2023-12-07T13:05:59;9.23;;;4.47;;
83552;SDS011;73510;50.866;5.420;2023-12-07T13:08:25;7.07;;;4.50;;
83552;SDS011;73510;50.866;5.420;2023-12-07T13:10:51;6.40;;;4.35;;
83552;SDS011;73510;50.866;5.420;2023-12-07T13:13:17;8.80;;;4.53;;
83552;SDS011;73510;50.866;5.420;2023-12-07T13:15:42;9.00;;;4.90;;
83552;SDS011;73510;50.866;5.420;2023-12-07T13:18:08;6.25;;;4.10;;
83552;SDS011;73510;50.866;5.420;2023-12-07T13:20:34;6.28;;;3.33;;
83552;SDS011;73510;50.866;5.420;2023-12-07T13:23:03;5.70;;;3.30;;
83552;SDS011;73510;50.866;5.420;2023-12-07T13:25:29;6.78;;;3.88;;
83552;SDS011;73510;50.866;5.420;2023-12-07T13:27:55;6.65;;;3.63;;
83552;SDS011;73510;50.866;5.420;2023-12-07T13:30:22;6.72;;;3.55;;
83552;SDS011;73510;50.866;5.420;2023-12-07T13:32:50;6.43;;;3.88;;
83552;SDS011;73510;50.866;5.420;2023-12-07T13:35:15;6.43;;;4.15;;
83552;SDS011;73510;50.866;5.420;2023-12-07T13:37:42;8.30;;;4.50;;
83552;SDS011;73510;50.866;5.420;2023-12-07T13:40:08;7.90;;;4.10;;
83552;SDS011;73510;50.866;5.420;2023-12-07T13:42:35;6.03;;;3.40;;
83552;SDS011;73510;50.866;5.420;2023-12-07T13:45:02;6.93;;;3.47;;
83552;SDS011;73510;50.866;5.420;2023-12-07T13:47:28;5.57;;;3.80;;
83552;SDS011;73510;50.866;5.420;2023-12-07T13:49:57;6.18;;;3.30;;
83552;SDS011;73510;50.866;5.420;2023-12-07T13:52:24;10.38;;;4.15;;
83552;SDS011;73510;50.866;5.420;2023-12-07T13:54:50;10.18;;;4.65;;
83552;SDS011;73510;50.866;5.420;2023-12-07T13:57:16;4.43;;;3.15;;
83552;SDS011;73510;50.866;5.420;2023-12-07T13:59:43;7.97;;;3.40;;
83552;SDS011;73510;50.866;5.420;2023-12-07T14:02:08;9.10;;;4.40;;
83552;SDS011;73510;50.866;5.420;2023-12-07T14:04:35;5.95;;;4.00;;
83552;SDS011;73510;50.866;5.420;2023-12-07T14:07:07;9.57;;;4.85;;
83552;SDS011;73510;50.866;5.420;2023-12-07T14:09:35;10.32;;;4.60;;
83552;SDS011;73510;50.866;5.420;2023-12-07T14:12:01;7.13;;;4.28;;
83552;SDS011;73510;50.866;5.420;2023-12-07T14:14:27;10.32;;;4.32;;
83552;SDS011;73510;50.866;5.420;2023-12-07T14:16:53;7.13;;;4.50;;
83552;SDS011;73510;50.866;5.420;2023-12-07T14:19:19;7.88;;;4.80;;
83552;SDS011;73510;50.866;5.420;2023-12-07T14:21:45;6.72;;;3.97;;
83552;SDS011;73510;50.866;5.420;2023-12-07T14:24:11;7.82;;;4.00;;
83552;SDS011;73510;50.866;5.420;2023-12-07T14:26:36;6.97;;;4.07;;
83552;SDS011;73510;50.866;5.420;2023-12-07T14:29:02;8.35;;;3.75;;
83552;SDS011;73510;50.866;5.420;2023-12-07T14:31:28;5.30;;;4.00;;
83552;SDS011;73510;50.866;5.420;2023-12-07T14:33:53;8.57;;;4.10;;
83552;SDS011;73510;50.866;5.420;2023-12-07T14:36:20;5.55;;;3.88;;
83552;SDS011;73510;50.866;5.420;2023-12-07T14:38:46;6.03;;;3.33;;
83552;SDS011;73510;50.866;5.420;2023-12-07T14:41:12;6.28;;;3.90;;
83552;SDS011;73510;50.866;5.420;2023-12-07T14:43:38;5.82;;;4.18;;